• Join FlightAware (Why Join?)
  • Login
  • US Flag 
02:35PM EDT


 

Airport Tracker/Info


-or-


 

Live Flight TrackerFlight Track Log ✈ N860BA ✈ 05-May-2013 ✈ KOMA - KHOU

Flight Track Log - Related Links

Times and Time Zones

All times are in EDT time to prevent confusion due to time zone crossing. See the N860BA flight status page for this flight to view local times or setup timezone preferences in your user account.

Time Position Orientation Groundspeed Altitude Reporting Facility
EDT Latitude Longitude Course Direction KTS MPH feet Rate Location/Type
07:52PM 41.3128 -95.9064 330° Northwest 150 173 1,700  Level Minneapolis Center
07:53PM 41.3431 -95.9297 330° Northwest 184 212 4,200 3,660 Climbing Minneapolis Center
07:54PM 41.3128 -96.0006 240° Southwest 241 277 8,300 3,600 Climbing Minneapolis Center
07:55PM 41.2614 -96.0664 224° Southwest 246 283 11,700 3,180 Climbing Minneapolis Center
07:56PM 41.1967 -96.1364 219° Southwest 277 319 14,900 3,000 Climbing Minneapolis Center
07:57PM 41.1064 -96.1500 186° South 312 359 17,900 2,940 Climbing Minneapolis Center
07:58PM 41.0133 -96.1614 185° South 326 375 21,000 2,760 Climbing Minneapolis Center
07:59PM 40.9175 -96.1742 186° South 336 387 23,700 2,520 Climbing Minneapolis Center
08:00PM 40.8175 -96.1883 186° South 347 399 26,200 2,100 Climbing Minneapolis Center
08:01PM 40.7122 -96.2028 186° South 365 420 28,100 1,740 Climbing Minneapolis Center
08:02PM 40.5797 -96.2222 186° South 392 451 29,800 1,140 Climbing Minneapolis Center
08:03PM 40.4625 -96.2369 185° South 413 475 30,500 660 Climbing Minneapolis Center
08:04PM 40.3378 -96.2553 186° South 436 502 31,200 720 Climbing Minneapolis Center
08:05PM 40.2119 -96.2711 185° South 450 518 32,000 900 Climbing Minneapolis Center
08:06PM 40.0850 -96.2900 186° South 455 524 33,100 1,020 Climbing Minneapolis Center
08:07PM 39.9608 -96.3067 186° South 452 520 34,200 1,080 Climbing Minneapolis Center
08:08PM 39.8550 -96.3211 186° South 451 519 35,100 1,020 Climbing Kansas City Center
08:09PM 39.7311 -96.3375 186° South 453 521 36,100 900 Climbing Kansas City Center
08:10PM 39.5881 -96.3564 186° South 461 531 37,000 600 Climbing Kansas City Center
08:11PM 39.4678 -96.4094 199° South 468 539 37,400 480 Climbing Kansas City Center
08:12PM 39.3483 -96.4742 203° Southwest 465 535 38,000 240 Climbing Kansas City Center
08:13PM 39.2206 -96.5436 203° Southwest 472 543 38,000  Level Kansas City Center
08:14PM 39.1044 -96.6044 202° Southwest 472 543 38,000  Level Kansas City Center
08:15PM 38.9858 -96.6678 203° Southwest 466 536 38,000  Level Kansas City Center
08:16PM 38.8539 -96.6814 185° South 480 552 38,000  Level Kansas City Center
08:17PM 38.6972 -96.6864 181° South 478 550 38,000  Level Kansas City Center
08:18PM 38.5683 -96.6908 182° South 482 555 38,000  Level Kansas City Center
08:19PM 38.4244 -96.6967 182° South 486 559 38,000  Level Kansas City Center
08:20PM 38.2886 -96.7017 182° South 486 559 38,000  Level Kansas City Center
08:21PM 38.1514 -96.7067 182° South 490 564 38,000  Level Kansas City Center
08:22PM 38.0131 -96.7128 182° South 494 568 38,000  Level Kansas City Center
08:23PM 37.8747 -96.7181 182° South 496 571 38,000  Level Kansas City Center
08:24PM 37.7375 -96.7222 181° South 491 565 38,000  Level Kansas City Center
08:25PM 37.6000 -96.7278 182° South 490 564 38,000  Level Kansas City Center
08:26PM 37.4372 -96.7331 181° South 487 560 38,000  Level Kansas City Center
08:27PM 37.2989 -96.7397 182° South 492 566 38,000  Level Kansas City Center
08:28PM 37.1597 -96.7456 182° South 496 571 38,000  Level Kansas City Center
08:29PM 37.0108 -96.7531 182° South 496 571 38,000  Level Kansas City Center
08:30PM 36.8739 -96.7589 182° South 494 568 38,000  Level Kansas City Center
08:32PM 36.7425 -96.7617 181° South 480 552 38,000  Level Kansas City Center
08:33PM 36.6053 -96.7672 182° South 489 563 38,000  Level Kansas City Center
08:34PM 36.4628 -96.7733 182° South 491 565 38,000  Level Kansas City Center
08:35PM 36.3253 -96.7778 181° South 493 567 38,000  Level Kansas City Center
08:36PM 36.1903 -96.7833 182° South 488 562 38,000  Level Kansas City Center
08:37PM 36.0531 -96.7889 182° South 490 564 38,000  Level Kansas City Center
08:38PM 35.8894 -96.7942 181° South 489 563 38,000  Level Kansas City Center
08:39PM 35.7519 -96.7994 182° South 491 565 38,000 -60 Level Kansas City Center
08:40PM 35.6139 -96.8028 181° South 492 566 37,900  Descending Kansas City Center
08:40PM 35.5217 -96.8067 182° South 498 573 38,000 60 Climbing Fort Worth Center
08:41PM 35.3819 -96.8100 181° South 498 573 38,000  Level Fort Worth Center
08:42PM 35.2464 -96.8186 183° South 498 573 38,000  Level Fort Worth Center
08:43PM 35.1086 -96.8247 182° South 498 573 38,000  Level Fort Worth Center
08:44PM 34.9711 -96.8283 181° South 498 573 38,000  Level Fort Worth Center
08:45PM 34.8314 -96.8367 183° South 498 573 38,000  Level Fort Worth Center
08:46PM 34.6936 -96.8403 181° South 498 573 38,000  Level Fort Worth Center
08:47PM 34.5603 -96.8461 182° South 498 573 38,000 -60 Level Fort Worth Center
08:48PM 34.4225 -96.8522 182° South 498 573 37,900  Descending Fort Worth Center
08:49PM 34.2847 -96.8581 182° South 498 573 38,000  Climbing Fort Worth Center
08:50PM 34.1472 -96.8639 182° South 498 573 37,900 -60 Descending Fort Worth Center
08:51PM 34.0136 -96.8672 181° South 498 573 37,900  Level Fort Worth Center
08:52PM 33.8758 -96.8731 182° South 498 573 38,000  Climbing Fort Worth Center
08:53PM 33.7444 -96.8739 180° South 493 567 38,000  Level Fort Worth Center
08:54PM 33.6233 -96.8797 182° South 493 567 38,000  Level Fort Worth Center
08:55PM 33.4711 -96.8856 182° South 493 567 38,000  Level Fort Worth Center
08:56PM 33.3500 -96.8886 181° South 498 573 38,000  Level Fort Worth Center
08:57PM 33.1997 -96.8919 181° South 498 573 38,000  Level Fort Worth Center
08:58PM 33.0744 -96.8978 182° South 493 567 38,000  Level Fort Worth Center
08:59PM 32.9242 -96.9011 181° South 493 567 38,000  Level Fort Worth Center
09:00PM 32.7864 -96.8969 179° South 493 567 38,000  Level Fort Worth Center
09:01PM 32.6444 -96.8903 178° South 498 573 38,000  Level Fort Worth Center
09:02PM 32.5067 -96.8814 177° South 498 573 38,000  Level Fort Worth Center
09:03PM 32.3667 -96.8747 178° South 498 573 38,000  Level Fort Worth Center
09:04PM 32.2414 -96.8681 177° South 498 573 38,000  Level Fort Worth Center
09:05PM 32.1014 -96.8567 176° South 498 573 38,000  Level Fort Worth Center
09:06PM 31.9636 -96.8525 179° South 498 573 38,000 -60 Level Fort Worth Center
09:07PM 31.8258 -96.8436 177° South 498 573 37,900 -60 Descending Fort Worth Center
09:09PM 31.6108 -96.8239 176° South 505 581 37,900 -540 Level Houston Center
09:10PM 31.4442 -96.7944 171° South 510 587 36,600 -2,100 Descending Houston Center
09:11PM 31.3008 -96.7717 172° South 512 589 33,600 -2,880 Descending Houston Center
09:12PM 31.1639 -96.7431 170° South 495 570 30,800 -2,820 Descending Houston Center
09:13PM 31.0381 -96.6733 155° Southeast 491 565 27,900 -2,880 Descending Houston Center
09:14PM 30.9131 -96.6017 154° Southeast 493 567 25,000 -2,820 Descending Houston Center
09:15PM 30.7856 -96.5303 154° Southeast 499 574 22,200 -2,820 Descending Houston Center
09:16PM 30.6619 -96.4614 154° Southeast 490 564 19,300 -2,820 Descending Houston Center
09:17PM 30.5431 -96.3939 154° Southeast 474 545 16,500 -2,580 Descending Houston Center
09:18PM 30.4214 -96.3267 155° Southeast 429 494 13,800 -2,220 Descending Houston Center
09:19PM 30.3281 -96.2742 154° Southeast 411 473 12,100 -1,440 Descending Houston Center
09:20PM 30.2192 -96.2144 155° Southeast 427 491 11,000 -600 Descending Houston Center
09:21PM 30.1147 -96.1561 154° Southeast 427 491 10,900 -60 Descending Houston Center
09:22PM 30.0208 -96.0686 141° Southeast 433 498 10,900  Level Houston Center
09:23PM 29.9203 -95.9608 137° Southeast 430 495 11,000  Climbing Houston Center
09:24PM 29.8383 -95.8725 137° Southeast 430 495 10,900 -600 Descending Houston Center
09:25PM 29.7644 -95.7919 137° Southeast 360 414 9,900 -1,260 Descending Houston Center
09:26PM 29.6997 -95.7242 138° Southeast 320 368 8,400 -1,680 Descending Houston Center
09:27PM 29.6411 -95.6603 137° Southeast 296 341 6,600 -1,560 Descending Houston Center
09:28PM 29.5903 -95.5919 131° Southeast 293 337 5,300 -1,380 Descending Houston Center
09:29PM 29.5753 -95.5119 102° East 262 302 3,800 -1,140 Descending Houston Center
09:30PM 29.5619 -95.4364 101° East 249 287 3,000 -660 Descending Houston Center
09:31PM 29.5597 -95.3753 92° East 212 244 2,500 -780 Descending Houston Center
09:33PM 29.5933 -95.3350 46° Northeast 112 129 1,300 -840 Descending Houston Center
09:33PM 29.6119 -95.3158 42° Northeast 138 159 800 -600 Descending Houston Center
09:34PM 29.6361 -95.2906 42° Northeast 126 145 200 -600 Descending Houston Center
09:36PM 29.6333 -95.2667 57° Northeast  Level FlightAware Approximate
09:43PM 29.6454 -95.2789 57° Northeast  Level Estimated